sensor_id;sensor_type;location;lat;lon;timestamp;pressure;altitude;pressure_sealevel;temperature;humidity
33191;BME280;19554;42.652;23.364;2023-07-29T00:00:45;94482.72;;;22.66;42.68
33191;BME280;19554;42.652;23.364;2023-07-29T00:03:11;94470.91;;;22.55;42.71
33191;BME280;19554;42.652;23.364;2023-07-29T00:05:37;94472.91;;;22.58;42.72
33191;BME280;19554;42.652;23.364;2023-07-29T00:08:02;94488.06;;;22.59;42.91
33191;BME280;19554;42.652;23.364;2023-07-29T00:10:28;94460.63;;;22.41;42.88
33191;BME280;19554;42.652;23.364;2023-07-29T00:12:54;94470.72;;;22.40;42.97
33191;BME280;19554;42.652;23.364;2023-07-29T00:15:19;94488.69;;;22.48;43.10
33191;BME280;19554;42.652;23.364;2023-07-29T00:17:45;94481.66;;;22.44;43.15
33191;BME280;19554;42.652;23.364;2023-07-29T00:20:10;94488.66;;;22.45;43.23
33191;BME280;19554;42.652;23.364;2023-07-29T00:22:36;94460.25;;;22.16;43.47
33191;BME280;19554;42.652;23.364;2023-07-29T00:25:01;94475.56;;;22.28;43.54
33191;BME280;19554;42.652;23.364;2023-07-29T00:27:27;94486.09;;;22.29;43.37
33191;BME280;19554;42.652;23.364;2023-07-29T00:29:52;94486.81;;;22.26;43.44
33191;BME280;19554;42.652;23.364;2023-07-29T00:32:18;94485.97;;;22.22;43.79
33191;BME280;19554;42.652;23.364;2023-07-29T00:34:43;94494.88;;;22.19;44.00
33191;BME280;19554;42.652;23.364;2023-07-29T00:37:09;94477.25;;;22.13;44.02
33191;BME280;19554;42.652;23.364;2023-07-29T00:39:35;94485.84;;;22.15;44.38
33191;BME280;19554;42.652;23.364;2023-07-29T00:42:02;94487.69;;;22.11;44.45
33191;BME280;19554;42.652;23.364;2023-07-29T00:44:27;94479.94;;;22.09;44.63
33191;BME280;19554;42.652;23.364;2023-07-29T00:46:53;94471.66;;;22.02;44.74
33191;BME280;19554;42.652;23.364;2023-07-29T00:49:20;94449.19;;;21.82;45.07
33191;BME280;19554;42.652;23.364;2023-07-29T00:51:46;94472.31;;;21.95;44.92
33191;BME280;19554;42.652;23.364;2023-07-29T00:54:11;94469.94;;;21.94;45.26
33191;BME280;19554;42.652;23.364;2023-07-29T00:56:37;94459.75;;;21.87;45.44
33191;BME280;19554;42.652;23.364;2023-07-29T00:59:03;94464.78;;;21.85;45.36
33191;BME280;19554;42.652;23.364;2023-07-29T01:01:29;94473.34;;;21.87;45.22
33191;BME280;19554;42.652;23.364;2023-07-29T01:03:55;94470.44;;;21.76;45.41
33191;BME280;19554;42.652;23.364;2023-07-29T01:09:05;94458.53;;;21.62;45.59
33191;BME280;19554;42.652;23.364;2023-07-29T01:16:42;94465.59;;;21.66;45.79
33191;BME280;19554;42.652;23.364;2023-07-29T01:19:23;94470.13;;;21.59;45.87
33191;BME280;19554;42.652;23.364;2023-07-29T01:21:54;94476.16;;;21.48;46.16
33191;BME280;19554;42.652;23.364;2023-07-29T01:24:20;94473.88;;;21.50;46.26
33191;BME280;19554;42.652;23.364;2023-07-29T01:26:45;94413.44;;;21.15;46.21
33191;BME280;19554;42.652;23.364;2023-07-29T01:29:10;94474.72;;;21.55;46.13
33191;BME280;19554;42.652;23.364;2023-07-29T01:31:43;94484.06;;;21.57;45.89
33191;BME280;19554;42.652;23.364;2023-07-29T01:34:13;94456.72;;;21.46;46.18
33191;BME280;19554;42.652;23.364;2023-07-29T01:36:43;94472.84;;;21.59;46.01
33191;BME280;19554;42.652;23.364;2023-07-29T01:39:11;94438.72;;;21.38;46.04
33191;BME280;19554;42.652;23.364;2023-07-29T01:41:37;94464.19;;;21.53;45.97
33191;BME280;19554;42.652;23.364;2023-07-29T01:44:04;94421.44;;;21.27;46.08
33191;BME280;19554;42.652;23.364;2023-07-29T01:46:33;94456.94;;;21.38;46.50
33191;BME280;19554;42.652;23.364;2023-07-29T01:48:59;94473.19;;;21.34;46.51
33191;BME280;19554;42.652;23.364;2023-07-29T01:51:24;94460.16;;;21.24;46.85
33191;BME280;19554;42.652;23.364;2023-07-29T01:53:49;94475.59;;;21.20;47.18
33191;BME280;19554;42.652;23.364;2023-07-29T01:56:15;94468.22;;;21.20;47.10
33191;BME280;19554;42.652;23.364;2023-07-29T01:58:40;94466.69;;;21.23;47.16
33191;BME280;19554;42.652;23.364;2023-07-29T02:01:05;94438.00;;;21.02;47.04
33191;BME280;19554;42.652;23.364;2023-07-29T02:03:31;94466.38;;;21.24;46.85
33191;BME280;19554;42.652;23.364;2023-07-29T02:05:56;94453.72;;;21.13;46.95
33191;BME280;19554;42.652;23.364;2023-07-29T02:08:21;94449.75;;;21.06;47.22
33191;BME280;19554;42.652;23.364;2023-07-29T02:10:47;94359.59;;;20.39;47.10
33191;BME280;19554;42.652;23.364;2023-07-29T02:13:14;94454.22;;;20.99;47.11
33191;BME280;19554;42.652;23.364;2023-07-29T02:15:39;94470.38;;;21.11;47.26
33191;BME280;19554;42.652;23.364;2023-07-29T02:18:04;94473.16;;;21.15;47.25
33191;BME280;19554;42.652;23.364;2023-07-29T02:20:31;94485.56;;;21.16;47.37
33191;BME280;19554;42.652;23.364;2023-07-29T02:22:57;94488.66;;;21.14;46.66
33191;BME280;19554;42.652;23.364;2023-07-29T02:25:22;94487.44;;;21.12;46.55
33191;BME280;19554;42.652;23.364;2023-07-29T02:27:47;94482.78;;;21.12;46.21
33191;BME280;19554;42.652;23.364;2023-07-29T02:30:13;94497.88;;;21.10;46.38
33191;BME280;19554;42.652;23.364;2023-07-29T02:32:38;94448.56;;;20.88;45.92
33191;BME280;19554;42.652;23.364;2023-07-29T02:35:04;94473.38;;;21.06;45.84
33191;BME280;19554;42.652;23.364;2023-07-29T02:37:30;94473.84;;;21.12;45.78
33191;BME280;19554;42.652;23.364;2023-07-29T02:39:55;94454.88;;;20.92;46.32
33191;BME280;19554;42.652;23.364;2023-07-29T02:42:20;94482.38;;;21.10;46.23
33191;BME280;19554;42.652;23.364;2023-07-29T02:44:46;94469.84;;;21.05;46.46
33191;BME280;19554;42.652;23.364;2023-07-29T02:47:12;94452.88;;;20.89;46.62
33191;BME280;19554;42.652;23.364;2023-07-29T02:49:37;94465.13;;;21.02;46.42
33191;BME280;19554;42.652;23.364;2023-07-29T02:52:03;94475.28;;;21.05;46.31
33191;BME280;19554;42.652;23.364;2023-07-29T02:54:28;94468.16;;;20.97;46.30
33191;BME280;19554;42.652;23.364;2023-07-29T02:56:53;94480.16;;;20.96;46.13
33191;BME280;19554;42.652;23.364;2023-07-29T02:59:19;94468.28;;;20.85;46.30
33191;BME280;19554;42.652;23.364;2023-07-29T03:01:45;94482.28;;;20.87;46.97
33191;BME280;19554;42.652;23.364;2023-07-29T03:04:10;94470.44;;;20.76;47.76
33191;BME280;19554;42.652;23.364;2023-07-29T03:06:38;94454.13;;;20.56;47.51
33191;BME280;19554;42.652;23.364;2023-07-29T03:09:03;94490.69;;;20.63;47.71
33191;BME280;19554;42.652;23.364;2023-07-29T03:11:30;94486.03;;;20.47;48.06
33191;BME280;19554;42.652;23.364;2023-07-29T03:13:56;94500.66;;;20.58;47.24
33191;BME280;19554;42.652;23.364;2023-07-29T03:16:22;94499.31;;;20.68;47.24
33191;BME280;19554;42.652;23.364;2023-07-29T03:18:48;94505.97;;;20.71;47.02
33191;BME280;19554;42.652;23.364;2023-07-29T03:21:14;94505.97;;;20.71;46.87
33191;BME280;19554;42.652;23.364;2023-07-29T03:23:39;94485.50;;;20.57;47.25
33191;BME280;19554;42.652;23.364;2023-07-29T03:26:05;94499.41;;;20.72;47.17
33191;BME280;19554;42.652;23.364;2023-07-29T03:28:41;94495.25;;;20.58;47.17
33191;BME280;19554;42.652;23.364;2023-07-29T03:31:06;94494.16;;;20.63;47.24
33191;BME280;19554;42.652;23.364;2023-07-29T03:33:32;94500.41;;;20.83;47.09
33191;BME280;19554;42.652;23.364;2023-07-29T03:35:58;94508.47;;;20.99;46.69
33191;BME280;19554;42.652;23.364;2023-07-29T03:38:23;94494.09;;;21.14;46.29
33191;BME280;19554;42.652;23.364;2023-07-29T03:40:49;94503.72;;;21.31;46.08
33191;BME280;19554;42.652;23.364;2023-07-29T03:43:15;94497.94;;;21.52;45.52
33191;BME280;19554;42.652;23.364;2023-07-29T03:45:40;94407.88;;;21.08;45.08
33191;BME280;19554;42.652;23.364;2023-07-29T03:48:06;94467.59;;;21.69;44.79
33191;BME280;19554;42.652;23.364;2023-07-29T03:50:33;94442.38;;;21.69;44.56
33191;BME280;19554;42.652;23.364;2023-07-29T03:53:00;94504.81;;;22.34;43.56
33191;BME280;19554;42.652;23.364;2023-07-29T03:55:26;94471.50;;;22.41;43.30
33191;BME280;19554;42.652;23.364;2023-07-29T03:57:51;94494.53;;;22.74;42.67
33191;BME280;19554;42.652;23.364;2023-07-29T04:00:16;94475.03;;;22.71;42.63
33191;BME280;19554;42.652;23.364;2023-07-29T04:02:42;94484.03;;;22.76;42.58
33191;BME280;19554;42.652;23.364;2023-07-29T04:05:08;94491.72;;;22.97;42.23
33191;BME280;19554;42.652;23.364;2023-07-29T04:07:34;94454.78;;;22.96;41.47
33191;BME280;19554;42.652;23.364;2023-07-29T04:09:59;94503.50;;;23.38;41.54
33191;BME280;19554;42.652;23.364;2023-07-29T04:12:26;94506.22;;;23.68;40.89
33191;BME280;19554;42.652;23.364;2023-07-29T04:14:51;94491.09;;;23.74;39.82
33191;BME280;19554;42.652;23.364;2023-07-29T04:17:17;94510.31;;;23.88;39.29
33191;BME280;19554;42.652;23.364;2023-07-29T04:19:42;94507.53;;;23.81;39.57
33191;BME280;19554;42.652;23.364;2023-07-29T04:22:07;94493.56;;;23.86;39.60
33191;BME280;19554;42.652;23.364;2023-07-29T04:24:33;94450.66;;;23.42;39.41
33191;BME280;19554;42.652;23.364;2023-07-29T04:26:58;94517.94;;;23.38;40.68
33191;BME280;19554;42.652;23.364;2023-07-29T04:29:23;94505.38;;;23.30;40.80
33191;BME280;19554;42.652;23.364;2023-07-29T04:31:52;94501.72;;;23.49;40.34
33191;BME280;19554;42.652;23.364;2023-07-29T04:34:18;94472.13;;;23.51;39.87
33191;BME280;19554;42.652;23.364;2023-07-29T04:36:47;94505.34;;;23.98;39.29
33191;BME280;19554;42.652;23.364;2023-07-29T04:39:13;94503.97;;;24.18;39.12
33191;BME280;19554;42.652;23.364;2023-07-29T04:41:38;94521.38;;;24.51;38.48
33191;BME280;19554;42.652;23.364;2023-07-29T04:44:04;94506.41;;;24.82;37.83
33191;BME280;19554;42.652;23.364;2023-07-29T04:46:30;94511.50;;;24.87;38.12
33191;BME280;19554;42.652;23.364;2023-07-29T04:48:55;94500.59;;;24.91;38.18
33191;BME280;19554;42.652;23.364;2023-07-29T04:51:21;94508.59;;;25.21;37.91
33191;BME280;19554;42.652;23.364;2023-07-29T04:53:46;94503.88;;;25.14;38.02
33191;BME280;19554;42.652;23.364;2023-07-29T04:56:12;94513.34;;;25.42;37.76
33191;BME280;19554;42.652;23.364;2023-07-29T04:58:37;94505.53;;;25.37;37.70
33191;BME280;19554;42.652;23.364;2023-07-29T05:01:04;94519.41;;;25.03;38.40
33191;BME280;19554;42.652;23.364;2023-07-29T05:03:29;94472.00;;;24.70;38.38
33191;BME280;19554;42.652;23.364;2023-07-29T05:05:55;94523.16;;;24.80;38.67
33191;BME280;19554;42.652;23.364;2023-07-29T05:08:22;94524.16;;;25.13;37.62
33191;BME280;19554;42.652;23.364;2023-07-29T05:10:51;94523.16;;;25.57;36.76
33191;BME280;19554;42.652;23.364;2023-07-29T05:13:18;94525.00;;;25.24;37.51
33191;BME280;19554;42.652;23.364;2023-07-29T05:15:43;94477.94;;;24.79;38.29
33191;BME280;19554;42.652;23.364;2023-07-29T05:18:08;94515.72;;;25.47;36.56
33191;BME280;19554;42.652;23.364;2023-07-29T05:20:34;94525.09;;;25.53;37.18
33191;BME280;19554;42.652;23.364;2023-07-29T05:22:59;94528.34;;;25.84;37.02
33191;BME280;19554;42.652;23.364;2023-07-29T05:25:26;94461.88;;;25.51;36.77
33191;BME280;19554;42.652;23.364;2023-07-29T05:27:51;94520.59;;;26.21;35.58
33191;BME280;19554;42.652;23.364;2023-07-29T05:30:16;94503.41;;;26.17;35.47
33191;BME280;19554;42.652;23.364;2023-07-29T05:32:42;94531.53;;;26.21;36.13
33191;BME280;19554;42.652;23.364;2023-07-29T05:35:07;94531.94;;;26.31;35.53
33191;BME280;19554;42.652;23.364;2023-07-29T05:37:33;94511.97;;;25.94;35.88
33191;BME280;19554;42.652;23.364;2023-07-29T05:39:58;94533.13;;;26.15;35.51
33191;BME280;19554;42.652;23.364;2023-07-29T05:42:24;94536.63;;;26.27;35.58
33191;BME280;19554;42.652;23.364;2023-07-29T05:44:49;94544.06;;;26.30;35.80
33191;BME280;19554;42.652;23.364;2023-07-29T05:47:15;94532.31;;;26.11;35.57
33191;BME280;19554;42.652;23.364;2023-07-29T05:49:40;94550.31;;;26.41;35.10
33191;BME280;19554;42.652;23.364;2023-07-29T05:52:06;94535.50;;;26.49;34.24
33191;BME280;19554;42.652;23.364;2023-07-29T05:54:31;94540.97;;;26.81;34.20
33191;BME280;19554;42.652;23.364;2023-07-29T05:56:57;94542.50;;;26.93;34.64
33191;BME280;19554;42.652;23.364;2023-07-29T05:59:22;94541.31;;;27.08;34.14
33191;BME280;19554;42.652;23.364;2023-07-29T06:01:47;94542.09;;;27.12;34.21
33191;BME280;19554;42.652;23.364;2023-07-29T06:04:13;94538.91;;;27.39;33.37
33191;BME280;19554;42.652;23.364;2023-07-29T06:06:38;94523.59;;;27.45;33.25
33191;BME280;19554;42.652;23.364;2023-07-29T06:09:04;94500.81;;;27.62;32.85
33191;BME280;19554;42.652;23.364;2023-07-29T06:11:29;94550.41;;;27.93;32.74
33191;BME280;19554;42.652;23.364;2023-07-29T06:13:55;94541.34;;;28.03;32.66
33191;BME280;19554;42.652;23.364;2023-07-29T06:16:20;94531.94;;;28.04;32.84
33191;BME280;19554;42.652;23.364;2023-07-29T06:18:45;94541.28;;;28.18;32.86
33191;BME280;19554;42.652;23.364;2023-07-29T06:21:11;94531.91;;;28.11;32.48
33191;BME280;19554;42.652;23.364;2023-07-29T06:23:42;94526.28;;;28.29;32.66
33191;BME280;19554;42.652;23.364;2023-07-29T06:26:07;94500.47;;;28.20;32.49
33191;BME280;19554;42.652;23.364;2023-07-29T06:28:33;94522.88;;;28.67;31.87
33191;BME280;19554;42.652;23.364;2023-07-29T06:30:59;94535.59;;;28.91;31.77
33191;BME280;19554;42.652;23.364;2023-07-29T06:33:24;94529.88;;;28.75;32.08
33191;BME280;19554;42.652;23.364;2023-07-29T06:35:49;94512.44;;;28.47;32.12
33191;BME280;19554;42.652;23.364;2023-07-29T06:38:15;94520.38;;;28.83;31.88
33191;BME280;19554;42.652;23.364;2023-07-29T06:40:44;94521.06;;;28.94;31.81
33191;BME280;19554;42.652;23.364;2023-07-29T06:43:09;94511.78;;;28.29;33.19
33191;BME280;19554;42.652;23.364;2023-07-29T06:45:35;94515.09;;;28.62;31.99
33191;BME280;19554;42.652;23.364;2023-07-29T06:48:00;94511.13;;;28.66;31.82
33191;BME280;19554;42.652;23.364;2023-07-29T06:50:25;94499.09;;;28.49;31.97
33191;BME280;19554;42.652;23.364;2023-07-29T06:52:51;94508.00;;;28.64;31.97
33191;BME280;19554;42.652;23.364;2023-07-29T06:55:16;94510.88;;;28.91;31.83
33191;BME280;19554;42.652;23.364;2023-07-29T06:57:41;94498.16;;;29.08;31.41
33191;BME280;19554;42.652;23.364;2023-07-29T07:00:07;94503.47;;;29.26;31.43
33191;BME280;19554;42.652;23.364;2023-07-29T07:02:34;94507.50;;;29.18;31.01
33191;BME280;19554;42.652;23.364;2023-07-29T07:04:59;94508.94;;;28.88;31.92
33191;BME280;19554;42.652;23.364;2023-07-29T07:07:25;94508.50;;;28.93;31.80
33191;BME280;19554;42.652;23.364;2023-07-29T07:09:50;94508.22;;;29.22;31.15
33191;BME280;19554;42.652;23.364;2023-07-29T07:12:15;94511.84;;;29.49;30.59
33191;BME280;19554;42.652;23.364;2023-07-29T07:14:41;94516.94;;;29.17;30.71
33191;BME280;19554;42.652;23.364;2023-07-29T07:17:06;94514.66;;;29.08;31.10
33191;BME280;19554;42.652;23.364;2023-07-29T07:19:31;94510.69;;;29.13;31.54
33191;BME280;19554;42.652;23.364;2023-07-29T07:21:57;94515.09;;;29.07;31.92
33191;BME280;19554;42.652;23.364;2023-07-29T07:24:22;94447.19;;;28.66;31.75
33191;BME280;19554;42.652;23.364;2023-07-29T07:26:48;94500.38;;;29.24;31.57
33191;BME280;19554;42.652;23.364;2023-07-29T07:29:14;94509.94;;;29.09;32.09
33191;BME280;19554;42.652;23.364;2023-07-29T07:31:39;94500.91;;;29.08;32.25
33191;BME280;19554;42.652;23.364;2023-07-29T07:34:04;94505.72;;;29.00;32.11
33191;BME280;19554;42.652;23.364;2023-07-29T07:36:30;94501.69;;;29.09;32.25
33191;BME280;19554;42.652;23.364;2023-07-29T07:38:56;94495.94;;;28.99;31.72
33191;BME280;19554;42.652;23.364;2023-07-29T07:41:21;94480.34;;;28.82;31.55
33191;BME280;19554;42.652;23.364;2023-07-29T07:43:47;94501.81;;;28.94;31.58
33191;BME280;19554;42.652;23.364;2023-07-29T07:46:12;94503.34;;;28.99;31.48
33191;BME280;19554;42.652;23.364;2023-07-29T07:48:38;94499.06;;;28.94;31.58
33191;BME280;19554;42.652;23.364;2023-07-29T07:51:12;94497.91;;;28.92;31.12
33191;BME280;19554;42.652;23.364;2023-07-29T07:53:38;94504.09;;;29.07;31.08
33191;BME280;19554;42.652;23.364;2023-07-29T07:56:03;94486.06;;;28.98;31.06
33191;BME280;19554;42.652;23.364;2023-07-29T07:58:29;94439.91;;;28.86;30.46
33191;BME280;19554;42.652;23.364;2023-07-29T08:01:03;94510.59;;;29.23;30.92
33191;BME280;19554;42.652;23.364;2023-07-29T08:03:28;94502.34;;;29.23;30.65
33191;BME280;19554;42.652;23.364;2023-07-29T08:05:54;94496.38;;;29.28;30.19
33191;BME280;19554;42.652;23.364;2023-07-29T08:08:19;94503.22;;;29.47;29.90
33191;BME280;19554;42.652;23.364;2023-07-29T08:10:44;94498.31;;;29.66;29.63
33191;BME280;19554;42.652;23.364;2023-07-29T08:13:10;94462.13;;;29.33;29.52
33191;BME280;19554;42.652;23.364;2023-07-29T08:15:35;94505.50;;;29.52;29.81
33191;BME280;19554;42.652;23.364;2023-07-29T08:18:00;94505.78;;;29.31;30.56
33191;BME280;19554;42.652;23.364;2023-07-29T08:20:26;94497.03;;;29.40;30.34
33191;BME280;19554;42.652;23.364;2023-07-29T08:22:51;94514.97;;;29.51;30.44
33191;BME280;19554;42.652;23.364;2023-07-29T08:25:16;94513.88;;;29.76;30.39
33191;BME280;19554;42.652;23.364;2023-07-29T08:27:42;94510.84;;;29.67;30.50
33191;BME280;19554;42.652;23.364;2023-07-29T08:30:08;94510.56;;;29.61;30.40
33191;BME280;19554;42.652;23.364;2023-07-29T08:32:33;94503.16;;;29.55;29.86
33191;BME280;19554;42.652;23.364;2023-07-29T08:34:59;94493.41;;;29.46;29.54
33191;BME280;19554;42.652;23.364;2023-07-29T08:37:24;94498.78;;;29.61;29.50
33191;BME280;19554;42.652;23.364;2023-07-29T08:39:50;94494.69;;;29.38;29.60
33191;BME280;19554;42.652;23.364;2023-07-29T08:42:16;94433.88;;;28.61;29.85
33191;BME280;19554;42.652;23.364;2023-07-29T08:44:45;94493.19;;;28.99;29.83
33191;BME280;19554;42.652;23.364;2023-07-29T08:47:12;94497.22;;;29.22;28.99
33191;BME280;19554;42.652;23.364;2023-07-29T08:49:42;94425.31;;;28.93;28.99
33191;BME280;19554;42.652;23.364;2023-07-29T08:52:09;94478.75;;;29.57;29.00
33191;BME280;19554;42.652;23.364;2023-07-29T08:54:35;94483.84;;;29.89;28.35
33191;BME280;19554;42.652;23.364;2023-07-29T08:57:00;94474.00;;;30.15;28.30
33191;BME280;19554;42.652;23.364;2023-07-29T08:59:28;94477.88;;;30.21;27.66
33191;BME280;19554;42.652;23.364;2023-07-29T09:01:54;94424.09;;;29.89;27.87
33191;BME280;19554;42.652;23.364;2023-07-29T09:04:22;94442.75;;;30.02;27.67
33191;BME280;19554;42.652;23.364;2023-07-29T09:06:50;94486.09;;;30.48;27.23
33191;BME280;19554;42.652;23.364;2023-07-29T09:09:15;94474.66;;;30.73;25.32
33191;BME280;19554;42.652;23.364;2023-07-29T09:11:41;94472.41;;;30.68;25.29
33191;BME280;19554;42.652;23.364;2023-07-29T09:14:06;94471.41;;;30.82;25.86
33191;BME280;19554;42.652;23.364;2023-07-29T09:16:32;94470.84;;;31.10;25.64
33191;BME280;19554;42.652;23.364;2023-07-29T09:19:01;94466.19;;;31.27;24.09
33191;BME280;19554;42.652;23.364;2023-07-29T09:21:27;94460.91;;;31.36;24.30
33191;BME280;19554;42.652;23.364;2023-07-29T09:23:54;94457.38;;;31.56;24.08
33191;BME280;19554;42.652;23.364;2023-07-29T09:26:26;94455.19;;;31.47;24.63
33191;BME280;19554;42.652;23.364;2023-07-29T09:28:53;94449.53;;;31.34;25.03
33191;BME280;19554;42.652;23.364;2023-07-29T09:31:23;94454.56;;;31.39;24.05
33191;BME280;19554;42.652;23.364;2023-07-29T09:33:49;94447.53;;;31.35;23.86
33191;BME280;19554;42.652;23.364;2023-07-29T09:36:14;94420.88;;;31.28;24.07
33191;BME280;19554;42.652;23.364;2023-07-29T09:38:40;94449.50;;;31.54;24.11
33191;BME280;19554;42.652;23.364;2023-07-29T09:41:06;94440.94;;;31.49;24.16
33191;BME280;19554;42.652;23.364;2023-07-29T09:43:33;94444.63;;;31.22;23.79
33191;BME280;19554;42.652;23.364;2023-07-29T09:46:05;94442.59;;;31.26;23.85
33191;BME280;19554;42.652;23.364;2023-07-29T09:48:34;94444.56;;;31.06;24.26
33191;BME280;19554;42.652;23.364;2023-07-29T09:51:09;94432.75;;;30.85;24.32
33191;BME280;19554;42.652;23.364;2023-07-29T09:53:43;94438.19;;;31.09;24.17
33191;BME280;19554;42.652;23.364;2023-07-29T09:56:09;94430.00;;;31.05;23.88
33191;BME280;19554;42.652;23.364;2023-07-29T09:58:34;94424.28;;;31.16;24.47
33191;BME280;19554;42.652;23.364;2023-07-29T10:01:01;94397.78;;;30.59;25.09
33191;BME280;19554;42.652;23.364;2023-07-29T10:03:27;94353.00;;;30.08;25.40
33191;BME280;19554;42.652;23.364;2023-07-29T10:05:53;94428.34;;;30.44;25.51
33191;BME280;19554;42.652;23.364;2023-07-29T10:08:20;94331.47;;;29.79;25.32
33191;BME280;19554;42.652;23.364;2023-07-29T10:10:46;94420.78;;;30.49;25.33
33191;BME280;19554;42.652;23.364;2023-07-29T10:13:12;94426.88;;;30.13;25.70
33191;BME280;19554;42.652;23.364;2023-07-29T10:15:38;94414.34;;;30.08;25.43
33191;BME280;19554;42.652;23.364;2023-07-29T10:18:04;94382.75;;;29.93;25.46
33191;BME280;19554;42.652;23.364;2023-07-29T10:20:30;94422.19;;;30.10;25.80
33191;BME280;19554;42.652;23.364;2023-07-29T10:22:59;94405.91;;;30.23;25.51
33191;BME280;19554;42.652;23.364;2023-07-29T10:25:32;94412.41;;;30.32;25.93
33191;BME280;19554;42.652;23.364;2023-07-29T10:28:06;94398.22;;;30.34;24.95
33191;BME280;19554;42.652;23.364;2023-07-29T10:30:32;94398.63;;;30.09;24.91
33191;BME280;19554;42.652;23.364;2023-07-29T10:32:59;94398.84;;;29.94;25.23
33191;BME280;19554;42.652;23.364;2023-07-29T10:35:27;94342.00;;;29.61;25.28
33191;BME280;19554;42.652;23.364;2023-07-29T10:37:53;94387.34;;;29.99;25.22
33191;BME280;19554;42.652;23.364;2023-07-29T10:40:19;94383.66;;;30.10;25.17
33191;BME280;19554;42.652;23.364;2023-07-29T10:43:09;94378.50;;;30.35;24.84
33191;BME280;19554;42.652;23.364;2023-07-29T10:45:41;94376.03;;;30.17;24.86
33191;BME280;19554;42.652;23.364;2023-07-29T10:48:11;94378.38;;;29.95;25.54
33191;BME280;19554;42.652;23.364;2023-07-29T10:50:37;94373.41;;;30.10;25.00
33191;BME280;19554;42.652;23.364;2023-07-29T10:53:03;94333.56;;;30.18;24.91
33191;BME280;19554;42.652;23.364;2023-07-29T10:55:32;94312.50;;;30.32;24.71
33191;BME280;19554;42.652;23.364;2023-07-29T10:58:07;94366.91;;;30.67;25.19
33191;BME280;19554;42.652;23.364;2023-07-29T11:00:33;94367.97;;;30.54;25.26
33191;BME280;19554;42.652;23.364;2023-07-29T11:03:00;94360.25;;;30.45;24.83
33191;BME280;19554;42.652;23.364;2023-07-29T11:05:26;94337.72;;;30.30;25.02
33191;BME280;19554;42.652;23.364;2023-07-29T11:07:52;94353.13;;;30.48;24.56
33191;BME280;19554;42.652;23.364;2023-07-29T11:10:17;94359.34;;;30.52;24.28
33191;BME280;19554;42.652;23.364;2023-07-29T11:12:47;94356.81;;;30.61;24.27
33191;BME280;19554;42.652;23.364;2023-07-29T11:15:22;94354.53;;;30.56;24.33
33191;BME280;19554;42.652;23.364;2023-07-29T11:17:52;94347.75;;;30.40;24.16
33191;BME280;19554;42.652;23.364;2023-07-29T11:20:20;94344.63;;;30.38;24.15
33191;BME280;19554;42.652;23.364;2023-07-29T11:22:47;94346.38;;;30.29;24.75
33191;BME280;19554;42.652;23.364;2023-07-29T11:25:14;94343.78;;;30.41;23.93
33191;BME280;19554;42.652;23.364;2023-07-29T11:27:41;94345.38;;;30.19;24.06
33191;BME280;19554;42.652;23.364;2023-07-29T11:30:08;94297.38;;;29.96;24.21
33191;BME280;19554;42.652;23.364;2023-07-29T11:32:35;94342.50;;;30.03;24.13
33191;BME280;19554;42.652;23.364;2023-07-29T11:35:12;94354.97;;;30.07;24.25
33191;BME280;19554;42.652;23.364;2023-07-29T11:37:43;94341.88;;;30.15;23.88
33191;BME280;19554;42.652;23.364;2023-07-29T11:40:09;94339.75;;;30.26;23.84
33191;BME280;19554;42.652;23.364;2023-07-29T11:42:38;94333.78;;;30.51;23.66
33191;BME280;19554;42.652;23.364;2023-07-29T11:45:04;94335.34;;;30.72;23.67
33191;BME280;19554;42.652;23.364;2023-07-29T11:47:33;94333.00;;;30.90;23.06
33191;BME280;19554;42.652;23.364;2023-07-29T11:50:07;94331.13;;;30.87;23.03
33191;BME280;19554;42.652;23.364;2023-07-29T11:52:37;94322.19;;;31.00;23.12
33191;BME280;19554;42.652;23.364;2023-07-29T11:55:05;94330.47;;;31.00;23.12
33191;BME280;19554;42.652;23.364;2023-07-29T11:57:33;94324.06;;;30.86;23.29
33191;BME280;19554;42.652;23.364;2023-07-29T12:00:02;94302.16;;;30.79;23.18
33191;BME280;19554;42.652;23.364;2023-07-29T12:02:28;94319.97;;;30.95;23.35
33191;BME280;19554;42.652;23.364;2023-07-29T12:04:55;94269.84;;;30.60;23.96
33191;BME280;19554;42.652;23.364;2023-07-29T12:07:22;94313.09;;;30.43;24.07
33191;BME280;19554;42.652;23.364;2023-07-29T12:09:47;94307.50;;;30.47;24.38
33191;BME280;19554;42.652;23.364;2023-07-29T12:12:14;94280.13;;;30.39;24.03
33191;BME280;19554;42.652;23.364;2023-07-29T12:14:45;94254.13;;;30.40;24.07
33191;BME280;19554;42.652;23.364;2023-07-29T12:17:12;94307.50;;;30.86;23.69
33191;BME280;19554;42.652;23.364;2023-07-29T12:19:39;94289.91;;;30.80;23.63
33191;BME280;19554;42.652;23.364;2023-07-29T12:22:06;94293.56;;;30.77;23.23
33191;BME280;19554;42.652;23.364;2023-07-29T12:24:33;94297.53;;;30.92;24.01
33191;BME280;19554;42.652;23.364;2023-07-29T12:27:00;94278.91;;;30.80;23.32
33191;BME280;19554;42.652;23.364;2023-07-29T12:29:26;94279.59;;;30.64;23.25
33191;BME280;19554;42.652;23.364;2023-07-29T12:32:02;94296.06;;;30.68;23.18
33191;BME280;19554;42.652;23.364;2023-07-29T12:34:29;94292.88;;;30.69;23.21
33191;BME280;19554;42.652;23.364;2023-07-29T12:36:55;94290.41;;;30.75;23.09
33191;BME280;19554;42.652;23.364;2023-07-29T12:39:28;94296.50;;;30.86;22.90
33191;BME280;19554;42.652;23.364;2023-07-29T12:41:56;94288.22;;;30.86;22.87
33191;BME280;19554;42.652;23.364;2023-07-29T12:44:25;94300.16;;;31.00;22.87
33191;BME280;19554;42.652;23.364;2023-07-29T12:46:51;94269.63;;;30.90;22.85
33191;BME280;19554;42.652;23.364;2023-07-29T12:49:17;94277.56;;;30.88;22.44
33191;BME280;19554;42.652;23.364;2023-07-29T12:51:43;94278.41;;;30.85;22.24
33191;BME280;19554;42.652;23.364;2023-07-29T12:54:08;94231.56;;;30.45;22.84